createdAt,value
2017-01-01T00:00:06.096Z,36.36
2017-01-01T00:00:46.687Z,36.55
2017-01-01T00:01:27.275Z,36.36
2017-01-01T00:02:07.865Z,36.36
2017-01-01T00:02:48.461Z,36.55
2017-01-01T00:03:29.050Z,36.36
2017-01-01T00:04:09.631Z,36.54
2017-01-01T00:04:50.214Z,36.46
2017-01-01T00:05:30.784Z,36.46
2017-01-01T00:06:11.377Z,36.63
2017-01-01T00:06:51.979Z,36.55
2017-01-01T00:07:32.567Z,36.46
2017-01-01T00:08:13.143Z,36.44
2017-01-01T00:08:53.738Z,36.44
2017-01-01T00:09:34.340Z,36.35
2017-01-01T00:10:14.947Z,36.36
2017-01-01T00:10:55.556Z,36.36
2017-01-01T00:11:36.136Z,36.35
2017-01-01T00:12:16.733Z,36.36
2017-01-01T00:12:57.318Z,36.35
2017-01-01T00:13:37.916Z,36.44
2017-01-01T00:14:18.525Z,36.54
2017-01-01T00:14:59.121Z,36.46
2017-01-01T00:15:39.722Z,36.55
2017-01-01T00:16:20.296Z,36.35
2017-01-01T00:17:00.888Z,36.44
2017-01-01T00:17:41.471Z,36.65
2017-01-01T00:18:22.066Z,36.46
2017-01-01T00:19:02.677Z,36.63
2017-01-01T00:19:43.282Z,36.55
2017-01-01T00:20:23.891Z,36.36
2017-01-01T00:21:04.485Z,36.55
2017-01-01T00:21:45.086Z,36.55
2017-01-01T00:22:25.689Z,36.46
2017-01-01T00:23:06.282Z,36.63
2017-01-01T00:23:46.908Z,36.44
2017-01-01T00:24:27.492Z,36.55
2017-01-01T00:25:08.098Z,36.46
2017-01-01T00:25:48.686Z,36.44
2017-01-01T00:26:29.300Z,36.44
2017-01-01T00:27:09.917Z,36.46
2017-01-01T00:27:50.510Z,36.44
2017-01-01T00:28:31.111Z,36.44
2017-01-01T00:29:11.707Z,36.54
2017-01-01T00:29:52.292Z,36.46
2017-01-01T00:30:32.906Z,36.46
2017-01-01T00:31:13.501Z,36.35
2017-01-01T00:31:54.115Z,36.35
2017-01-01T00:32:34.725Z,36.63
2017-01-01T00:33:15.317Z,36.44
2017-01-01T00:33:55.922Z,36.36
2017-01-01T00:34:36.522Z,36.44
2017-01-01T00:35:17.124Z,36.46
2017-01-01T00:35:57.709Z,36.46
2017-01-01T00:36:38.286Z,36.54
2017-01-01T00:37:18.887Z,36.65
2017-01-01T00:37:59.465Z,36.54
2017-01-01T00:38:40.073Z,36.55
2017-01-01T00:39:20.684Z,36.46
2017-01-01T00:40:01.276Z,36.54
2017-01-01T00:40:41.884Z,36.54
2017-01-01T00:41:22.473Z,36.54
2017-01-01T00:42:03.057Z,36.54
2017-01-01T00:42:43.653Z,36.54
2017-01-01T00:43:24.246Z,36.63
2017-01-01T00:44:04.869Z,36.54
2017-01-01T00:44:45.489Z,36.35
2017-01-01T00:45:26.086Z,36.55
2017-01-01T00:46:06.674Z,36.54
2017-01-01T00:46:47.296Z,36.63
2017-01-01T00:47:27.895Z,36.46
2017-01-01T00:48:08.484Z,36.36
2017-01-01T00:48:49.079Z,36.54
2017-01-01T00:49:29.651Z,36.54
2017-01-01T00:50:10.248Z,36.54
2017-01-01T00:50:50.855Z,36.54
2017-01-01T00:51:31.444Z,36.54
2017-01-01T00:52:12.059Z,36.54
2017-01-01T00:52:52.655Z,36.63
2017-01-01T00:53:33.258Z,36.44
2017-01-01T00:54:13.835Z,36.54
2017-01-01T00:54:54.446Z,36.35
2017-01-01T00:55:35.031Z,36.35
2017-01-01T00:56:15.620Z,36.44
2017-01-01T00:56:56.214Z,36.44
2017-01-01T00:57:36.791Z,36.35
2017-01-01T00:58:17.377Z,36.46
2017-01-01T00:58:57.964Z,36.44
2017-01-01T00:59:38.547Z,36.54
2017-01-01T01:00:19.142Z,36.35
2017-01-01T01:00:59.729Z,36.44
2017-01-01T01:01:40.313Z,36.44
2017-01-01T01:02:20.910Z,36.25
2017-01-01T01:03:01.498Z,36.25
2017-01-01T01:03:42.099Z,36.44
2017-01-01T01:04:22.694Z,36.35
2017-01-01T01:05:03.279Z,36.54
2017-01-01T01:05:43.870Z,36.65
2017-01-01T01:06:24.480Z,36.44
2017-01-01T01:07:05.063Z,36.44
2017-01-01T01:07:45.644Z,36.44
2017-01-01T01:08:26.220Z,36.44
2017-01-01T01:09:06.823Z,36.44
2017-01-01T01:09:47.392Z,36.35
2017-01-01T01:10:27.971Z,36.44
2017-01-01T01:11:08.556Z,36.44
2017-01-01T01:11:49.150Z,36.44
2017-01-01T01:12:29.737Z,36.44
2017-01-01T01:13:10.346Z,36.63
2017-01-01T01:13:50.915Z,36.63
2017-01-01T01:14:31.495Z,36.44
2017-01-01T01:15:12.080Z,36.44
2017-01-01T01:15:52.669Z,36.36
2017-01-01T01:16:33.257Z,36.44
2017-01-01T01:17:13.838Z,36.35
2017-01-01T01:17:54.424Z,36.35
2017-01-01T01:18:35.008Z,36.35
2017-01-01T01:19:15.597Z,36.44
2017-01-01T01:19:56.181Z,36.46
2017-01-01T01:20:36.766Z,36.63
2017-01-01T01:21:17.361Z,36.35
2017-01-01T01:21:57.929Z,36.44
2017-01-01T01:22:38.540Z,36.44
2017-01-01T01:23:19.134Z,36.35
2017-01-01T01:23:59.722Z,36.54
2017-01-01T01:24:40.303Z,36.54
2017-01-01T01:25:20.899Z,36.35
2017-01-01T01:26:01.475Z,36.44
2017-01-01T01:26:42.061Z,36.54
2017-01-01T01:27:22.654Z,36.44
2017-01-01T01:28:03.255Z,36.46
2017-01-01T01:28:43.844Z,36.35
2017-01-01T01:29:24.426Z,36.54
2017-01-01T01:30:05.024Z,36.54
2017-01-01T01:30:45.635Z,36.63
2017-01-01T01:31:26.233Z,36.54
2017-01-01T01:32:06.853Z,36.54
2017-01-01T01:32:47.437Z,36.54
2017-01-01T01:33:28.048Z,36.54
2017-01-01T01:34:08.635Z,36.44
2017-01-01T01:34:49.231Z,36.63
2017-01-01T01:35:29.835Z,36.54
2017-01-01T01:36:10.432Z,36.44
2017-01-01T01:36:51.015Z,36.35
2017-01-01T01:37:31.605Z,36.54
2017-01-01T01:38:12.196Z,36.63
2017-01-01T01:38:52.786Z,36.44
2017-01-01T01:39:33.394Z,36.54
2017-01-01T01:40:13.998Z,36.54
2017-01-01T01:40:54.599Z,36.54
2017-01-01T01:41:35.183Z,36.54
2017-01-01T01:42:15.769Z,36.54
2017-01-01T01:42:56.355Z,36.44
2017-01-01T01:43:36.967Z,36.54
2017-01-01T01:44:17.555Z,36.54
2017-01-01T01:44:58.136Z,36.54
2017-01-01T01:45:38.725Z,36.63
2017-01-01T01:46:19.318Z,36.54
2017-01-01T01:46:59.912Z,36.44
2017-01-01T01:47:40.493Z,36.54
2017-01-01T01:48:21.085Z,36.35
2017-01-01T01:49:01.677Z,36.63
2017-01-01T01:49:42.267Z,36.35
2017-01-01T01:50:22.879Z,36.54
2017-01-01T01:51:03.469Z,36.54
2017-01-01T01:51:44.064Z,36.44
2017-01-01T01:52:24.646Z,36.63
2017-01-01T01:53:05.245Z,36.54
2017-01-01T01:53:45.839Z,36.63
2017-01-01T01:54:26.433Z,36.54
2017-01-01T01:55:07.040Z,36.44
2017-01-01T01:55:47.631Z,36.63
2017-01-01T01:56:28.219Z,36.54
2017-01-01T01:57:08.804Z,36.54
2017-01-01T01:57:49.410Z,36.63
2017-01-01T01:58:29.999Z,36.54
2017-01-01T01:59:10.592Z,36.54
2017-01-01T01:59:51.180Z,36.63
2017-01-01T02:00:31.762Z,36.54
2017-01-01T02:01:12.350Z,36.63
2017-01-01T02:01:52.922Z,36.54
2017-01-01T02:02:33.507Z,36.54
2017-01-01T02:03:14.109Z,36.44
2017-01-01T02:03:54.704Z,36.44
2017-01-01T02:04:35.305Z,36.44
2017-01-01T02:05:15.901Z,36.54
2017-01-01T02:05:56.507Z,36.63
2017-01-01T02:06:37.094Z,36.54
2017-01-01T02:07:17.675Z,36.54
2017-01-01T02:07:58.275Z,36.54
2017-01-01T02:08:38.876Z,36.44
2017-01-01T02:09:19.477Z,36.44
2017-01-01T02:10:00.070Z,36.44
2017-01-01T02:10:40.666Z,36.44
2017-01-01T02:11:21.249Z,36.44
2017-01-01T02:12:01.834Z,36.63
2017-01-01T02:12:42.426Z,36.54
2017-01-01T02:13:23.025Z,36.44
2017-01-01T02:14:03.605Z,36.44
2017-01-01T02:14:44.188Z,36.63
2017-01-01T02:15:24.780Z,36.44
2017-01-01T02:16:05.380Z,36.54
2017-01-01T02:16:45.970Z,36.54
2017-01-01T02:17:26.557Z,36.54
2017-01-01T02:18:07.169Z,36.44
2017-01-01T02:18:47.754Z,36.54
2017-01-01T02:19:28.340Z,36.54
2017-01-01T02:20:08.933Z,36.54
2017-01-01T02:20:49.532Z,36.44
2017-01-01T02:21:30.131Z,36.44
2017-01-01T02:22:10.725Z,36.35
2017-01-01T02:22:51.810Z,36.35
2017-01-01T02:23:32.417Z,36.35
2017-01-01T02:24:12.998Z,36.44
2017-01-01T02:24:53.595Z,36.54
2017-01-01T02:25:34.188Z,36.44
2017-01-01T02:26:14.775Z,36.44
2017-01-01T02:26:55.356Z,36.54
2017-01-01T02:27:35.944Z,36.54
2017-01-01T02:28:16.523Z,36.54
2017-01-01T02:28:57.112Z,36.44
2017-01-01T02:29:37.694Z,36.54
2017-01-01T02:30:18.281Z,36.44
2017-01-01T02:30:58.876Z,36.44
2017-01-01T02:31:39.477Z,36.44
2017-01-01T02:32:20.077Z,36.63
2017-01-01T02:33:00.669Z,36.44
2017-01-01T02:33:41.264Z,36.63
2017-01-01T02:34:21.858Z,36.54
2017-01-01T02:35:02.431Z,36.54
2017-01-01T02:35:43.016Z,36.44
2017-01-01T02:36:23.591Z,36.54
2017-01-01T02:37:04.177Z,36.35
2017-01-01T02:37:44.767Z,36.35
2017-01-01T02:38:25.370Z,36.54
2017-01-01T02:39:05.955Z,36.35
2017-01-01T02:39:46.538Z,36.54
2017-01-01T02:40:27.134Z,36.35
2017-01-01T02:41:07.739Z,36.54
2017-01-01T02:41:48.335Z,36.63
2017-01-01T02:42:28.918Z,36.44
2017-01-01T02:43:09.514Z,36.54
2017-01-01T02:43:50.105Z,36.44
2017-01-01T02:44:30.690Z,36.35
2017-01-01T02:45:11.279Z,36.35
2017-01-01T02:45:51.869Z,36.63
2017-01-01T02:46:32.444Z,36.35
2017-01-01T02:47:13.039Z,36.54
2017-01-01T02:47:53.623Z,36.44
2017-01-01T02:48:34.244Z,36.44
2017-01-01T02:49:14.839Z,36.44
2017-01-01T02:49:55.450Z,36.44
2017-01-01T02:50:36.019Z,36.44
2017-01-01T02:51:16.601Z,36.35
2017-01-01T02:51:57.190Z,36.44
2017-01-01T02:52:37.769Z,36.35
2017-01-01T02:53:18.379Z,36.44
2017-01-01T02:53:58.968Z,36.44
2017-01-01T02:54:39.558Z,36.54
2017-01-01T02:55:20.150Z,36.44
2017-01-01T02:56:00.731Z,36.44
2017-01-01T02:56:41.312Z,36.54
2017-01-01T02:57:21.886Z,36.63
2017-01-01T02:58:02.470Z,36.54
2017-01-01T02:58:43.059Z,36.44
2017-01-01T02:59:23.642Z,36.44
2017-01-01T03:00:04.231Z,36.25
2017-01-01T03:00:44.836Z,36.25
2017-01-01T03:01:25.416Z,36.44
2017-01-01T03:02:05.993Z,36.15
2017-01-01T03:02:46.591Z,36.25
2017-01-01T03:03:27.191Z,36.35
2017-01-01T03:04:07.797Z,36.25
2017-01-01T03:04:48.387Z,36.35
2017-01-01T03:05:28.997Z,36.25
2017-01-01T03:06:09.583Z,36.35
2017-01-01T03:06:50.161Z,36.15
2017-01-01T03:07:30.749Z,36.25
2017-01-01T03:08:11.335Z,36.44
2017-01-01T03:08:51.934Z,36.35
2017-01-01T03:09:32.509Z,36.35
2017-01-01T03:10:13.098Z,36.35
2017-01-01T03:10:53.689Z,36.44
2017-01-01T03:11:34.279Z,36.44
2017-01-01T03:12:14.893Z,36.44
2017-01-01T03:12:55.483Z,36.35
2017-01-01T03:13:36.071Z,36.35
2017-01-01T03:14:16.656Z,36.15
2017-01-01T03:14:57.262Z,36.25
2017-01-01T03:15:37.870Z,36.35
2017-01-01T03:16:18.462Z,36.35
2017-01-01T03:16:59.072Z,36.35
2017-01-01T03:17:39.658Z,36.25
2017-01-01T03:18:20.238Z,36.35
2017-01-01T03:19:00.824Z,36.35
2017-01-01T03:19:41.418Z,36.25
2017-01-01T03:20:21.990Z,36.25
2017-01-01T03:21:02.586Z,36.15
2017-01-01T03:21:43.171Z,36.44
2017-01-01T03:22:23.737Z,36.35
2017-01-01T03:23:04.318Z,36.15
2017-01-01T03:23:44.904Z,36.35
2017-01-01T03:24:25.479Z,36.25
2017-01-01T03:25:06.072Z,36.15
2017-01-01T03:25:46.672Z,36.15
2017-01-01T03:26:27.259Z,36.15
2017-01-01T03:27:07.839Z,36.25
2017-01-01T03:27:48.428Z,36.25
2017-01-01T03:28:29.004Z,36.35
2017-01-01T03:29:09.580Z,36.25
2017-01-01T03:29:50.163Z,36.25
2017-01-01T03:30:30.741Z,36.44
2017-01-01T03:31:11.331Z,36.15
2017-01-01T03:31:51.921Z,36.35
2017-01-01T03:32:32.545Z,36.35
2017-01-01T03:33:13.154Z,36.44
2017-01-01T03:33:53.742Z,36.35
2017-01-01T03:34:34.321Z,36.15
2017-01-01T03:35:14.904Z,36.25
2017-01-01T03:35:55.491Z,36.15
2017-01-01T03:36:36.075Z,36.25
2017-01-01T03:37:16.678Z,36.15
2017-01-01T03:37:57.252Z,36.25
2017-01-01T03:38:37.830Z,36.15
2017-01-01T03:39:18.409Z,36.25
2017-01-01T03:39:58.993Z,36.15
2017-01-01T03:40:39.613Z,36.25
2017-01-01T03:41:20.167Z,36.15
2017-01-01T03:42:00.773Z,36.15
2017-01-01T03:42:41.366Z,36.35
2017-01-01T03:43:21.955Z,36.35
2017-01-01T03:44:02.547Z,36.35
2017-01-01T03:44:43.121Z,36.25
2017-01-01T03:45:23.703Z,36.35
2017-01-01T03:46:04.283Z,36.25
2017-01-01T03:46:44.873Z,36.35
2017-01-01T03:47:25.462Z,36.15
2017-01-01T03:48:06.057Z,36.35
2017-01-01T03:48:46.658Z,36.25
2017-01-01T03:49:27.253Z,36.35
2017-01-01T03:50:07.844Z,36.25
2017-01-01T03:50:48.424Z,36.15
2017-01-01T03:51:29.014Z,36.25
2017-01-01T03:52:09.599Z,36.15
2017-01-01T03:52:50.216Z,36.25
2017-01-01T03:53:30.825Z,36.15
2017-01-01T03:54:11.441Z,36.15
2017-01-01T03:54:52.029Z,36.25
2017-01-01T03:55:32.626Z,36.15
2017-01-01T03:56:13.250Z,36.15
2017-01-01T03:56:53.848Z,36.15
2017-01-01T03:57:34.447Z,36.06
2017-01-01T03:58:15.034Z,36.15
2017-01-01T03:58:55.637Z,36.06
2017-01-01T03:59:36.235Z,36.25
2017-01-01T04:00:16.815Z,36.25
2017-01-01T04:00:57.412Z,36.25
2017-01-01T04:01:38.002Z,36.25
2017-01-01T04:02:18.598Z,36.25
2017-01-01T04:02:59.206Z,36.25
2017-01-01T04:03:39.820Z,36.15
2017-01-01T04:04:20.412Z,36.06
2017-01-01T04:05:01.022Z,36.06
2017-01-01T04:05:41.623Z,36.35
2017-01-01T04:06:22.203Z,36.06
2017-01-01T04:07:02.789Z,36.25
2017-01-01T04:07:43.364Z,36.15
2017-01-01T04:08:23.964Z,36.35
2017-01-01T04:09:04.551Z,36.44
2017-01-01T04:09:45.127Z,36.25
2017-01-01T04:10:25.724Z,36.25
2017-01-01T04:11:06.300Z,36.15
2017-01-01T04:11:46.885Z,36.44
2017-01-01T04:12:27.468Z,36.25
2017-01-01T04:13:08.060Z,36.25
2017-01-01T04:13:48.644Z,36.35
2017-01-01T04:14:29.237Z,36.25
2017-01-01T04:15:09.813Z,36.15
2017-01-01T04:15:50.400Z,36.15
2017-01-01T04:16:30.981Z,36.25
2017-01-01T04:17:11.581Z,36.15
2017-01-01T04:17:52.161Z,36.15
2017-01-01T04:18:32.739Z,36.15
2017-01-01T04:19:13.328Z,36.15
2017-01-01T04:19:53.909Z,36.06
2017-01-01T04:20:34.498Z,36.06
2017-01-01T04:21:15.074Z,35.96
2017-01-01T04:21:55.658Z,36.06
2017-01-01T04:22:36.245Z,35.96
2017-01-01T04:23:16.825Z,36.25
2017-01-01T04:23:57.405Z,36.35
2017-01-01T04:24:38.029Z,36.25
2017-01-01T04:25:18.616Z,36.35
2017-01-01T04:25:59.197Z,36.15
2017-01-01T04:26:39.772Z,36.06
2017-01-01T04:27:20.367Z,36.06
2017-01-01T04:28:00.957Z,36.06
2017-01-01T04:28:41.538Z,36.15
2017-01-01T04:29:22.127Z,36.06
2017-01-01T04:30:02.724Z,36.15
2017-01-01T04:30:43.316Z,36.15
2017-01-01T04:31:23.910Z,36.25
2017-01-01T04:32:04.506Z,36.25
2017-01-01T04:32:45.094Z,36.06
2017-01-01T04:33:25.691Z,35.96
2017-01-01T04:34:06.278Z,35.96
2017-01-01T04:34:46.880Z,36.15
2017-01-01T04:35:27.477Z,36.06
2017-01-01T04:36:08.127Z,36.15
2017-01-01T04:36:48.735Z,36.06
2017-01-01T04:37:29.334Z,36.06
2017-01-01T04:38:09.939Z,36.06
2017-01-01T04:38:50.531Z,36.06
2017-01-01T04:39:31.150Z,36.15
2017-01-01T04:40:11.738Z,36.25
2017-01-01T04:40:52.323Z,36.15
2017-01-01T04:41:32.916Z,36.35
2017-01-01T04:42:13.514Z,36.15
2017-01-01T04:42:54.088Z,36.25
2017-01-01T04:43:34.669Z,36.06
2017-01-01T04:44:15.255Z,36.15
2017-01-01T04:44:55.838Z,35.96
2017-01-01T04:45:36.460Z,36.35
2017-01-01T04:46:17.046Z,36.35
2017-01-01T04:46:57.629Z,36.15
2017-01-01T04:47:38.208Z,36.06
2017-01-01T04:48:18.823Z,36.15
2017-01-01T04:48:59.435Z,36.06
2017-01-01T04:49:40.027Z,36.15
2017-01-01T04:50:20.618Z,36.25
2017-01-01T04:51:01.192Z,36.06
2017-01-01T04:51:41.794Z,36.06
2017-01-01T04:52:22.373Z,36.15
2017-01-01T04:53:02.973Z,36.15
2017-01-01T04:53:43.572Z,36.06
2017-01-01T04:54:24.161Z,35.96
2017-01-01T04:55:04.755Z,35.96
2017-01-01T04:55:45.349Z,36.06
2017-01-01T04:56:25.949Z,35.96
2017-01-01T04:57:06.532Z,36.06
2017-01-01T04:57:47.123Z,35.96
2017-01-01T04:58:27.709Z,36.15
2017-01-01T04:59:08.298Z,36.25
2017-01-01T04:59:48.894Z,36.15
2017-01-01T05:00:29.484Z,36.06
2017-01-01T05:01:10.072Z,36.15
2017-01-01T05:01:50.659Z,36.25
2017-01-01T05:02:31.242Z,36.06
2017-01-01T05:03:11.821Z,36.35
2017-01-01T05:03:52.406Z,36.06
2017-01-01T05:04:32.986Z,36.06
2017-01-01T05:05:13.559Z,36.06
2017-01-01T05:05:54.151Z,36.15
2017-01-01T05:06:34.744Z,36.15
2017-01-01T05:07:15.331Z,36.06
2017-01-01T05:07:55.912Z,35.96
2017-01-01T05:08:36.487Z,36.06
2017-01-01T05:09:17.077Z,36.15
2017-01-01T05:09:57.666Z,36.25
2017-01-01T05:10:38.249Z,36.06
2017-01-01T05:11:18.836Z,36.15
2017-01-01T05:11:59.423Z,36.06
2017-01-01T05:12:40.015Z,36.15
2017-01-01T05:13:20.610Z,36.06
2017-01-01T05:14:01.192Z,36.15
2017-01-01T05:14:41.789Z,36.06
2017-01-01T05:15:22.407Z,36.15
2017-01-01T05:16:02.994Z,36.15
2017-01-01T05:16:43.579Z,36.06
2017-01-01T05:17:24.169Z,36.06
2017-01-01T05:18:04.753Z,36.15
2017-01-01T05:18:45.344Z,36.15
2017-01-01T05:19:25.922Z,36.06
2017-01-01T05:20:06.504Z,36.06
2017-01-01T05:20:47.098Z,36.15
2017-01-01T05:21:27.691Z,36.15
2017-01-01T05:22:08.266Z,36.15
2017-01-01T05:22:48.855Z,36.15
2017-01-01T05:23:29.438Z,36.06
2017-01-01T05:24:10.018Z,36.15
2017-01-01T05:24:50.602Z,35.96
2017-01-01T05:25:31.182Z,36.06
2017-01-01T05:26:11.772Z,36.06
2017-01-01T05:26:52.367Z,36.15
2017-01-01T05:27:32.960Z,36.15
2017-01-01T05:28:13.536Z,36.15
2017-01-01T05:28:54.132Z,36.25
2017-01-01T05:29:34.726Z,36.25
2017-01-01T05:30:15.328Z,36.15
2017-01-01T05:30:55.918Z,36.06
2017-01-01T05:31:36.498Z,36.15
2017-01-01T05:32:17.075Z,36.15
2017-01-01T05:32:57.661Z,36.15
2017-01-01T05:33:38.241Z,36.06
2017-01-01T05:34:18.827Z,36.06
2017-01-01T05:34:59.435Z,36.15
2017-01-01T05:35:40.027Z,36.15
2017-01-01T05:36:20.604Z,36.15
2017-01-01T05:37:01.200Z,35.86
2017-01-01T05:37:41.787Z,36.15
2017-01-01T05:38:22.392Z,36.15
2017-01-01T05:39:02.972Z,36.06
2017-01-01T05:39:43.552Z,36.15
2017-01-01T05:40:24.130Z,36.06
2017-01-01T05:41:04.719Z,36.06
2017-01-01T05:41:45.333Z,35.96
2017-01-01T05:42:25.916Z,35.96
2017-01-01T05:43:06.526Z,36.06
2017-01-01T05:43:47.111Z,35.96
2017-01-01T05:44:27.730Z,36.15
2017-01-01T05:45:08.344Z,36.25
2017-01-01T05:45:48.931Z,35.96
2017-01-01T05:46:29.537Z,36.15
2017-01-01T05:47:10.110Z,36.06
2017-01-01T05:47:50.686Z,35.86
2017-01-01T05:48:31.269Z,35.96
2017-01-01T05:49:11.874Z,36.15
2017-01-01T05:49:52.452Z,36.15
2017-01-01T05:50:33.032Z,36.15
2017-01-01T05:51:13.642Z,36.15
2017-01-01T05:51:54.215Z,35.86
2017-01-01T05:52:34.803Z,35.96
2017-01-01T05:53:15.401Z,36.15
2017-01-01T05:53:55.989Z,35.77
2017-01-01T05:54:36.587Z,35.96
2017-01-01T05:55:17.191Z,36.06
2017-01-01T05:55:57.775Z,35.77
2017-01-01T05:56:38.365Z,35.86
2017-01-01T05:57:18.959Z,35.86
2017-01-01T05:57:59.559Z,35.86
2017-01-01T05:58:40.164Z,35.77
2017-01-01T05:59:20.741Z,35.86
2017-01-01T06:00:01.329Z,36.06
2017-01-01T06:00:41.920Z,35.86
2017-01-01T06:01:22.515Z,36.15
2017-01-01T06:02:03.105Z,36.06
2017-01-01T06:02:43.689Z,36.06
2017-01-01T06:03:24.269Z,35.67
2017-01-01T06:04:04.852Z,35.86
2017-01-01T06:04:45.433Z,35.77
2017-01-01T06:05:26.022Z,35.96
2017-01-01T06:06:06.616Z,36.15
2017-01-01T06:06:47.220Z,35.77
2017-01-01T06:07:27.819Z,35.96
2017-01-01T06:08:08.396Z,35.96
2017-01-01T06:08:48.974Z,35.96
2017-01-01T06:09:29.561Z,35.96
2017-01-01T06:10:10.145Z,35.86
2017-01-01T06:10:50.741Z,35.86
2017-01-01T06:11:31.347Z,35.86
2017-01-01T06:12:11.951Z,35.86
2017-01-01T06:12:52.544Z,36.06
2017-01-01T06:13:33.140Z,35.96
2017-01-01T06:14:13.721Z,35.86
2017-01-01T06:14:54.301Z,35.77
2017-01-01T06:15:34.917Z,35.77
2017-01-01T06:16:15.509Z,35.77
2017-01-01T06:16:56.099Z,35.96
2017-01-01T06:17:36.690Z,36.06
2017-01-01T06:18:17.320Z,35.86
2017-01-01T06:18:57.902Z,35.96
2017-01-01T06:19:38.500Z,35.77
2017-01-01T06:20:19.093Z,35.96
2017-01-01T06:20:59.675Z,36.06
2017-01-01T06:21:40.256Z,36.06
2017-01-01T06:22:20.872Z,35.77
2017-01-01T06:23:01.480Z,35.86
2017-01-01T06:23:42.082Z,35.86
2017-01-01T06:24:22.667Z,36.06
2017-01-01T06:25:03.279Z,35.77
2017-01-01T06:25:43.892Z,35.77
2017-01-01T06:26:24.483Z,35.77
2017-01-01T06:27:05.095Z,35.86
2017-01-01T06:27:45.689Z,35.86
2017-01-01T06:28:26.272Z,35.96
2017-01-01T06:29:06.859Z,35.96
2017-01-01T06:29:47.442Z,35.96
2017-01-01T06:30:28.034Z,35.86
2017-01-01T06:31:08.612Z,35.86
2017-01-01T06:31:49.196Z,36.06
2017-01-01T06:32:29.781Z,36.15
2017-01-01T06:33:10.368Z,35.86
2017-01-01T06:33:50.966Z,35.96
2017-01-01T06:34:31.546Z,35.77
2017-01-01T06:35:12.144Z,36.06
2017-01-01T06:35:52.739Z,35.77
2017-01-01T06:36:33.333Z,35.96
2017-01-01T06:37:13.928Z,35.86
2017-01-01T06:37:54.517Z,35.85
2017-01-01T06:38:35.115Z,35.96
2017-01-01T06:39:15.711Z,35.96
2017-01-01T06:39:56.299Z,36.06
2017-01-01T06:40:36.886Z,35.86
2017-01-01T06:41:17.476Z,35.96
2017-01-01T06:41:58.069Z,35.96
2017-01-01T06:42:38.646Z,35.77
2017-01-01T06:43:19.226Z,35.77
2017-01-01T06:43:59.822Z,35.86
2017-01-01T06:44:40.425Z,35.75
2017-01-01T06:45:21.012Z,35.77
2017-01-01T06:46:01.611Z,35.86
2017-01-01T06:46:42.219Z,35.86
2017-01-01T06:47:22.835Z,35.86
2017-01-01T06:48:03.413Z,35.85
2017-01-01T06:48:44.000Z,35.77
2017-01-01T06:49:24.616Z,36.15
2017-01-01T06:50:05.197Z,36.15
2017-01-01T06:50:45.783Z,35.86
2017-01-01T06:51:26.364Z,35.77
2017-01-01T06:52:06.947Z,35.77
2017-01-01T06:52:47.532Z,35.96
2017-01-01T06:53:28.120Z,35.96
2017-01-01T06:54:08.702Z,35.96
2017-01-01T06:54:49.302Z,35.77
2017-01-01T06:55:29.892Z,35.86
2017-01-01T06:56:10.492Z,35.96
2017-01-01T06:56:51.101Z,35.96
2017-01-01T06:57:31.684Z,35.96
2017-01-01T06:58:12.268Z,35.96
2017-01-01T06:58:52.851Z,35.96
2017-01-01T06:59:33.454Z,35.86
2017-01-01T07:00:14.052Z,35.77
2017-01-01T07:00:54.644Z,35.86
2017-01-01T07:01:35.235Z,35.86
2017-01-01T07:02:15.818Z,35.77
2017-01-01T07:02:56.395Z,35.86
2017-01-01T07:03:36.981Z,35.96
2017-01-01T07:04:17.565Z,35.77
2017-01-01T07:04:58.162Z,35.86
2017-01-01T07:05:38.752Z,35.86
2017-01-01T07:06:19.350Z,35.85
2017-01-01T07:06:59.932Z,35.94
2017-01-01T07:07:40.515Z,35.65
2017-01-01T07:08:21.108Z,35.85
2017-01-01T07:09:01.700Z,35.85
2017-01-01T07:09:42.288Z,35.86
2017-01-01T07:10:22.879Z,35.94
2017-01-01T07:11:03.472Z,35.86
2017-01-01T07:11:44.060Z,35.96
2017-01-01T07:12:24.634Z,35.77
2017-01-01T07:13:05.232Z,35.96
2017-01-01T07:13:45.812Z,35.96
2017-01-01T07:14:26.416Z,35.67
2017-01-01T07:15:07.008Z,35.86
2017-01-01T07:15:47.595Z,35.86
2017-01-01T07:16:28.196Z,35.96
2017-01-01T07:17:08.791Z,35.86
2017-01-01T07:17:49.390Z,35.77
2017-01-01T07:18:29.977Z,35.85
2017-01-01T07:19:10.582Z,35.86
2017-01-01T07:19:51.186Z,35.56
2017-01-01T07:20:31.797Z,35.65
2017-01-01T07:21:12.386Z,35.86
2017-01-01T07:21:53.000Z,35.75
2017-01-01T07:22:33.578Z,35.96
2017-01-01T07:23:14.174Z,35.77
2017-01-01T07:23:54.761Z,35.86
2017-01-01T07:24:35.354Z,35.77
2017-01-01T07:25:15.962Z,35.77
2017-01-01T07:25:56.565Z,35.75
2017-01-01T07:26:37.150Z,35.86
2017-01-01T07:27:17.763Z,35.85
2017-01-01T07:27:58.363Z,35.85
2017-01-01T07:28:38.959Z,35.86
2017-01-01T07:29:19.548Z,35.58
2017-01-01T07:30:00.130Z,35.77
2017-01-01T07:30:40.724Z,35.67
2017-01-01T07:31:21.343Z,35.77
2017-01-01T07:32:01.918Z,35.77
2017-01-01T07:32:42.505Z,35.86
2017-01-01T07:33:23.098Z,35.67
2017-01-01T07:34:03.695Z,35.86
2017-01-01T07:34:44.276Z,35.85
2017-01-01T07:35:24.850Z,35.77
2017-01-01T07:36:05.435Z,35.86
2017-01-01T07:36:46.034Z,35.86
2017-01-01T07:37:26.663Z,35.86
2017-01-01T07:38:07.260Z,35.86
2017-01-01T07:38:47.849Z,35.96
2017-01-01T07:39:28.440Z,35.77
2017-01-01T07:40:09.054Z,35.86
2017-01-01T07:40:49.635Z,35.67
2017-01-01T07:41:30.212Z,35.86
2017-01-01T07:42:10.792Z,35.65
2017-01-01T07:42:51.377Z,35.86
2017-01-01T07:43:31.962Z,35.58
2017-01-01T07:44:12.571Z,35.67
2017-01-01T07:44:53.169Z,35.58
2017-01-01T07:45:33.754Z,35.38
2017-01-01T07:46:14.337Z,35.67
2017-01-01T07:46:54.923Z,35.86
2017-01-01T07:47:35.502Z,35.67
2017-01-01T07:48:16.110Z,35.77
2017-01-01T07:48:56.698Z,35.86
2017-01-01T07:49:37.281Z,35.86
2017-01-01T07:50:17.873Z,35.75
2017-01-01T07:50:58.494Z,35.86
2017-01-01T07:51:39.051Z,35.96
2017-01-01T07:52:19.658Z,35.86
2017-01-01T07:53:00.259Z,35.96
2017-01-01T07:53:40.839Z,35.86
2017-01-01T07:54:21.435Z,35.86
2017-01-01T07:55:02.026Z,35.96
2017-01-01T07:55:42.611Z,35.86
2017-01-01T07:56:23.196Z,35.86
2017-01-01T07:57:03.771Z,35.96
2017-01-01T07:57:44.356Z,35.86
2017-01-01T07:58:24.951Z,35.77
2017-01-01T07:59:05.552Z,35.86
2017-01-01T07:59:46.132Z,35.77
2017-01-01T08:00:26.724Z,35.86
2017-01-01T08:01:07.310Z,35.86
2017-01-01T08:01:47.891Z,35.58
2017-01-01T08:02:28.475Z,35.96
2017-01-01T08:03:09.061Z,35.77
2017-01-01T08:03:49.647Z,35.67
2017-01-01T08:04:30.236Z,35.77
2017-01-01T08:05:10.818Z,35.58
2017-01-01T08:05:51.425Z,35.86
2017-01-01T08:06:32.014Z,35.86
2017-01-01T08:07:12.601Z,35.86
2017-01-01T08:07:53.176Z,35.77
2017-01-01T08:08:33.799Z,35.67
2017-01-01T08:09:14.392Z,35.77
2017-01-01T08:09:54.998Z,35.86
2017-01-01T08:10:35.552Z,35.86
2017-01-01T08:11:16.134Z,35.77
2017-01-01T08:11:56.705Z,35.67
2017-01-01T08:12:37.317Z,35.86
2017-01-01T08:13:17.901Z,35.58
2017-01-01T08:13:58.497Z,35.58
2017-01-01T08:14:39.073Z,35.28
2017-01-01T08:15:19.705Z,35.48
2017-01-01T08:16:00.288Z,35.48
2017-01-01T08:16:40.909Z,35.86
2017-01-01T08:17:21.494Z,35.58
2017-01-01T08:18:02.092Z,35.77
2017-01-01T08:18:42.725Z,35.67
2017-01-01T08:19:23.322Z,35.48
2017-01-01T08:20:03.910Z,35.38
2017-01-01T08:20:44.520Z,35.67
2017-01-01T08:21:25.125Z,35.28
2017-01-01T08:22:05.724Z,35.77
2017-01-01T08:22:46.322Z,35.48
2017-01-01T08:23:26.910Z,35.58
2017-01-01T08:24:07.516Z,35.48
2017-01-01T08:24:48.090Z,35.48
2017-01-01T08:25:28.679Z,35.86
2017-01-01T08:26:09.270Z,35.48
2017-01-01T08:26:49.882Z,35.48
2017-01-01T08:27:30.480Z,35.58
2017-01-01T08:28:11.092Z,35.58
2017-01-01T08:28:51.678Z,35.58
2017-01-01T08:29:32.263Z,35.58
2017-01-01T08:30:12.850Z,35.58
2017-01-01T08:30:53.433Z,35.58
2017-01-01T08:31:34.038Z,35.38
2017-01-01T08:32:14.644Z,35.48
2017-01-01T08:32:55.242Z,35.48
2017-01-01T08:33:35.860Z,35.58
2017-01-01T08:34:16.444Z,35.38
2017-01-01T08:34:57.027Z,35.48
2017-01-01T08:35:37.607Z,35.58
2017-01-01T08:36:18.207Z,35.38
2017-01-01T08:36:58.782Z,35.58
2017-01-01T08:37:39.368Z,35.58
2017-01-01T08:38:19.954Z,35.58
2017-01-01T08:39:00.543Z,35.58
2017-01-01T08:39:41.172Z,35.58
2017-01-01T08:40:21.754Z,35.38
2017-01-01T08:41:02.359Z,35.48
2017-01-01T08:41:42.965Z,35.67
2017-01-01T08:42:23.555Z,35.38